Time;durP1;ratioP1;P1;durP2;ratioP2;P2;SDS_P1;SDS_P2;PMS_P1;PMS_P2;Temp;Humidity;BMP_temperature;BMP_pressure;BME280_temperature;BME280_humidity;BME280_pressure;Samples;Min_cycle;Max_cycle;Signal;HPM_P1;HPM_P2
2024/01/26 00:02:25;;;;;;;13.15;3.72;;;11.50;99.90;;;;;;4920511;29;20448;-54
2024/01/26 00:04:51;;;;;;;10.85;2.80;;;11.50;99.90;;;;;;4915384;29;20096;-53
2024/01/26 00:07:16;;;;;;;9.27;3.17;;;11.60;99.90;;;;;;4916659;29;20469;-50
2024/01/26 00:09:42;;;;;;;8.10;3.13;;;11.50;99.90;;;;;;4916604;29;20096;-57
2024/01/26 00:12:08;;;;;;;10.48;3.53;;;11.60;99.90;;;;;;4916653;29;20036;-52
2024/01/26 00:14:33;;;;;;;8.98;2.80;;;11.60;99.90;;;;;;4915168;29;20383;-55
2024/01/26 00:17:00;;;;;;;9.73;2.85;;;11.60;99.90;;;;;;4916352;29;20048;-55
2024/01/26 00:19:26;;;;;;;10.73;3.65;;;11.60;99.90;;;;;;4916397;29;20028;-56
2024/01/26 00:21:52;;;;;;;7.82;3.47;;;11.60;99.90;;;;;;4916462;29;20024;-55
2024/01/26 00:24:17;;;;;;;8.63;3.25;;;11.60;99.90;;;;;;4915937;29;20036;-54
2024/01/26 00:26:43;;;;;;;10.55;3.92;;;11.60;99.90;;;;;;4916402;29;20040;-51
2024/01/26 00:29:09;;;;;;;10.00;3.45;;;11.70;99.90;;;;;;4916343;29;20039;-54
2024/01/26 00:31:34;;;;;;;9.68;3.10;;;11.70;99.90;;;;;;4914197;29;20029;-52
2024/01/26 00:34:00;;;;;;;7.13;3.67;;;11.70;99.90;;;;;;4916387;29;20543;-57
2024/01/26 00:36:25;;;;;;;10.68;3.42;;;11.70;99.90;;;;;;4916023;29;20031;-55
2024/01/26 00:38:52;;;;;;;6.03;2.92;;;11.70;99.90;;;;;;4916146;29;20024;-51
2024/01/26 00:41:17;;;;;;;9.68;3.55;;;11.70;99.90;;;;;;4916052;29;20024;-55
2024/01/26 00:43:43;;;;;;;7.60;4.05;;;11.60;99.90;;;;;;4915834;29;20092;-56
2024/01/26 00:46:08;;;;;;;11.27;3.55;;;11.60;99.90;;;;;;4915794;29;20124;-57
2024/01/26 00:48:34;;;;;;;9.77;3.88;;;11.60;99.90;;;;;;4915877;29;20047;-57
2024/01/26 00:51:00;;;;;;;10.55;3.72;;;11.60;99.90;;;;;;4915843;29;20020;-57
2024/01/26 00:53:26;;;;;;;10.43;3.05;;;11.70;99.90;;;;;;4915439;29;20024;-54
2024/01/26 00:55:51;;;;;;;17.60;4.57;;;11.70;99.90;;;;;;4915605;29;20507;-56
2024/01/26 00:58:17;;;;;;;18.20;4.45;;;11.70;99.90;;;;;;4914234;29;20491;-57
2024/01/26 01:00:43;;;;;;;11.95;3.55;;;11.70;99.90;;;;;;4915277;29;20064;-57
2024/01/26 01:03:09;;;;;;;19.83;4.85;;;11.70;99.90;;;;;;4915543;29;20126;-54
2024/01/26 01:05:34;;;;;;;19.00;4.70;;;11.70;99.90;;;;;;4915607;29;20118;-59
2024/01/26 01:08:00;;;;;;;19.58;4.65;;;11.60;99.90;;;;;;4902248;29;20123;-53
2024/01/26 01:10:26;;;;;;;14.57;3.55;;;11.60;99.90;;;;;;4915459;29;20155;-55
2024/01/26 01:12:52;;;;;;;16.98;4.97;;;11.60;99.90;;;;;;4915227;29;20051;-55
2024/01/26 01:15:17;;;;;;;8.50;4.10;;;11.60;99.90;;;;;;4915348;29;20036;-55
2024/01/26 01:17:47;;;;;;;12.00;3.53;;;11.50;99.90;;;;;;4915183;29;20020;-56
2024/01/26 01:20:13;;;;;;;;;;;11.50;99.90;;;;;;4915875;29;20032;-57
2024/01/26 01:22:41;;;;;;;13.90;3.85;;;11.40;99.90;;;;;;4915194;29;20001;-58
2024/01/26 01:25:08;;;;;;;12.98;4.80;;;11.40;99.90;;;;;;4915195;29;20087;-56
2024/01/26 01:27:36;;;;;;;22.30;5.07;;;11.40;99.90;;;;;;4915268;29;20039;-58
2024/01/26 01:30:03;;;;;;;16.90;4.82;;;11.40;99.90;;;;;;4915202;29;20040;-57
2024/01/26 01:32:29;;;;;;;7.80;4.00;;;11.40;99.90;;;;;;4915260;29;20024;-55
2024/01/26 01:34:55;;;;;;;17.15;5.85;;;11.40;99.90;;;;;;4915063;29;20068;-56
2024/01/26 01:37:20;;;;;;;22.75;5.05;;;11.30;99.90;;;;;;4915023;29;20032;-54
2024/01/26 01:39:47;;;;;;;17.10;6.40;;;11.30;99.90;;;;;;4914879;29;20083;-57
2024/01/26 01:42:15;;;;;;;11.80;3.95;;;11.40;99.90;;;;;;4914553;29;20036;-55
2024/01/26 01:44:45;;;;;;;14.52;4.57;;;11.40;99.90;;;;;;4914780;29;20044;-57
2024/01/26 01:47:12;;;;;;;17.50;4.82;;;11.40;99.90;;;;;;4902304;29;20055;-57
2024/01/26 01:49:39;;;;;;;10.20;3.13;;;11.40;99.90;;;;;;4915015;29;20028;-57
2024/01/26 01:52:08;;;;;;;7.45;3.22;;;11.40;99.90;;;;;;4914757;29;20399;-56
2024/01/26 01:54:34;;;;;;;;;;;11.40;99.90;;;;;;4915421;29;20396;-58
2024/01/26 01:57:04;;;;;;;6.38;3.15;;;11.40;99.90;;;;;;4914724;29;19914;-59
2024/01/26 01:59:30;;;;;;;9.43;3.00;;;11.50;99.90;;;;;;4914797;29;20090;-54
2024/01/26 02:01:57;;;;;;;6.07;2.35;;;11.40;99.90;;;;;;4914622;29;20024;-58
2024/01/26 02:04:22;;;;;;;9.48;2.17;;;11.40;99.90;;;;;;4913325;29;20032;-56
2024/01/26 02:06:56;;;;;;;6.80;2.13;;;11.50;99.90;;;;;;4914518;29;20383;-56
2024/01/26 02:09:22;;;;;;;8.05;2.63;;;11.50;99.90;;;;;;4914842;29;20028;-58
2024/01/26 02:11:48;;;;;;;8.05;2.55;;;11.50;99.90;;;;;;4914686;29;20028;-57
2024/01/26 02:14:13;;;;;;;6.30;2.15;;;11.50;99.90;;;;;;4914523;29;20119;-57
2024/01/26 02:16:39;;;;;;;4.90;1.83;;;11.50;99.90;;;;;;4914689;29;20056;-56
2024/01/26 02:19:05;;;;;;;6.53;2.65;;;11.60;99.90;;;;;;4914510;29;20112;-58
2024/01/26 02:21:30;;;;;;;5.38;2.25;;;11.50;99.90;;;;;;4914428;29;20035;-57
2024/01/26 02:23:56;;;;;;;5.63;2.47;;;11.60;99.90;;;;;;4914363;29;20042;-60
2024/01/26 02:26:21;;;;;;;5.03;2.50;;;11.50;99.90;;;;;;4914196;29;20086;-57
2024/01/26 02:28:47;;;;;;;9.52;2.63;;;11.60;99.90;;;;;;4914475;29;20024;-57
2024/01/26 02:31:13;;;;;;;9.05;2.17;;;11.50;99.90;;;;;;4914323;29;20024;-56
2024/01/26 02:33:38;;;;;;;6.75;2.17;;;11.60;99.90;;;;;;4914189;29;20419;-58
2024/01/26 02:36:04;;;;;;;9.07;2.40;;;11.60;99.90;;;;;;4914390;29;20027;-55
2024/01/26 02:38:30;;;;;;;6.03;2.40;;;11.60;99.90;;;;;;4914199;29;20035;-55
2024/01/26 02:40:55;;;;;;;9.63;2.53;;;11.60;99.90;;;;;;4914222;29;20016;-58
2024/01/26 02:43:21;;;;;;;8.13;2.03;;;11.60;99.90;;;;;;4914294;29;20036;-56
2024/01/26 02:45:47;;;;;;;5.45;1.80;;;11.60;99.90;;;;;;4914369;29;20103;-56
2024/01/26 02:48:13;;;;;;;6.75;2.47;;;11.70;99.90;;;;;;4914044;29;20169;-54
2024/01/26 02:50:39;;;;;;;6.80;2.55;;;11.70;99.90;;;;;;4914488;29;20052;-57
2024/01/26 02:53:05;;;;;;;6.72;2.55;;;11.70;99.90;;;;;;4914429;29;20488;-58
2024/01/26 02:55:31;;;;;;;15.73;2.97;;;11.70;99.90;;;;;;4917053;29;20148;-56
2024/01/26 02:57:57;;;;;;;8.88;2.63;;;11.60;99.90;;;;;;4918024;29;20020;-55
2024/01/26 03:00:22;;;;;;;7.93;1.90;;;11.70;99.90;;;;;;4917841;29;20352;-56
2024/01/26 03:02:48;;;;;;;4.45;2.08;;;11.60;99.90;;;;;;4917676;29;20434;-54
2024/01/26 03:05:13;;;;;;;9.13;2.53;;;11.60;99.90;;;;;;4917587;29;20036;-57
2024/01/26 03:07:39;;;;;;;6.00;2.22;;;11.60;99.90;;;;;;4917793;29;20032;-57
2024/01/26 03:10:06;;;;;;;6.88;2.03;;;11.70;99.90;;;;;;4917704;29;20404;-56
2024/01/26 03:12:33;;;;;;;8.07;2.08;;;11.70;99.90;;;;;;4917416;29;20050;-56
2024/01/26 03:15:00;;;;;;;11.90;3.20;;;11.70;99.90;;;;;;4916207;29;20361;-54
2024/01/26 03:17:26;;;;;;;14.90;2.78;;;11.70;99.90;;;;;;4917268;29;20050;-57
2024/01/26 03:19:51;;;;;;;5.55;2.17;;;11.70;99.90;;;;;;4917793;29;20447;-57
2024/01/26 03:22:17;;;;;;;9.40;2.30;;;11.70;99.90;;;;;;4917568;29;20032;-57
2024/01/26 03:24:46;;;;;;;8.82;2.30;;;11.70;99.90;;;;;;4917230;29;20476;-56
2024/01/26 03:27:11;;;;;;;5.30;1.40;;;11.70;99.90;;;;;;4917345;29;20060;-58
2024/01/26 03:29:37;;;;;;;7.43;1.80;;;11.70;99.90;;;;;;4917263;29;20024;-56
2024/01/26 03:32:03;;;;;;;6.65;2.00;;;11.70;99.90;;;;;;4917299;29;20039;-56
2024/01/26 03:34:30;;;;;;;9.20;1.65;;;11.70;99.90;;;;;;4917122;29;20116;-56
2024/01/26 03:36:55;;;;;;;11.07;2.20;;;11.70;99.90;;;;;;4917387;29;20106;-56
2024/01/26 03:39:21;;;;;;;7.80;2.05;;;11.60;99.90;;;;;;4917098;29;20451;-57
2024/01/26 03:41:47;;;;;;;9.20;1.83;;;11.70;99.90;;;;;;4917063;29;20028;-58
2024/01/26 03:44:12;;;;;;;11.50;3.22;;;11.70;99.90;;;;;;4917085;29;20040;-56
2024/01/26 03:46:42;;;;;;;14.98;2.67;;;11.70;99.90;;;;;;4916867;29;20031;-57
2024/01/26 03:49:09;;;;;;;10.23;3.20;;;11.60;99.90;;;;;;4917117;29;20119;-56
2024/01/26 03:51:36;;;;;;;16.63;2.65;;;11.60;99.90;;;;;;4916942;29;20043;-56
2024/01/26 03:54:02;;;;;;;10.70;2.72;;;11.60;99.90;;;;;;4916969;29;20032;-55
2024/01/26 03:56:27;;;;;;;14.48;2.65;;;11.60;99.90;;;;;;4916821;29;20028;-56
2024/01/26 03:58:53;;;;;;;14.55;2.85;;;11.60;99.90;;;;;;4921759;29;20024;-56
2024/01/26 04:01:20;;;;;;;20.92;3.35;;;11.60;99.90;;;;;;4935718;29;20039;-54
2024/01/26 04:03:46;;;;;;;11.30;2.53;;;11.50;99.90;;;;;;4935494;29;20455;-55
2024/01/26 04:06:12;;;;;;;14.15;3.17;;;11.50;99.90;;;;;;4934558;29;20119;-56
2024/01/26 04:08:37;;;;;;;10.35;3.15;;;11.50;99.90;;;;;;4935631;29;20035;-57
2024/01/26 04:11:03;;;;;;;18.55;3.28;;;11.50;99.90;;;;;;4930589;29;20028;-54
2024/01/26 04:13:29;;;;;;;15.50;3.08;;;11.50;99.90;;;;;;4916649;29;20035;-56
2024/01/26 04:15:54;;;;;;;12.55;3.13;;;11.50;99.90;;;;;;4916556;29;20028;-54
2024/01/26 04:18:20;;;;;;;21.15;2.83;;;11.50;99.90;;;;;;4916708;29;20551;-53
2024/01/26 04:20:48;;;;;;;19.67;2.97;;;11.40;99.90;;;;;;4916263;29;20522;-58
2024/01/26 04:23:14;;;;;;;7.57;2.15;;;11.40;99.90;;;;;;4916344;29;20510;-56
2024/01/26 04:25:40;;;;;;;15.25;3.30;;;11.40;99.90;;;;;;4916306;29;20481;-53
2024/01/26 04:28:06;;;;;;;9.70;2.67;;;11.40;99.90;;;;;;4916081;29;20103;-54
2024/01/26 04:30:31;;;;;;;17.77;3.40;;;11.40;99.90;;;;;;4916399;29;20028;-55
2024/01/26 04:32:57;;;;;;;16.45;2.67;;;11.30;99.90;;;;;;4916133;29;20020;-55
2024/01/26 04:35:23;;;;;;;19.13;2.90;;;11.30;99.90;;;;;;4916273;29;20060;-55
2024/01/26 04:37:48;;;;;;;13.90;3.45;;;11.30;99.90;;;;;;4916241;29;20111;-55
2024/01/26 04:40:14;;;;;;;17.60;4.30;;;11.30;99.90;;;;;;4916050;29;20517;-56
2024/01/26 04:42:39;;;;;;;18.75;2.97;;;11.30;99.90;;;;;;4915928;29;20071;-56
2024/01/26 04:45:05;;;;;;;34.65;4.15;;;11.30;99.90;;;;;;4915836;29;20103;-54
2024/01/26 04:47:31;;;;;;;17.38;3.65;;;11.30;99.90;;;;;;4915960;29;20079;-56
2024/01/26 04:49:57;;;;;;;24.13;4.10;;;11.30;99.90;;;;;;4915880;29;20032;-54
2024/01/26 04:52:22;;;;;;;16.48;2.65;;;11.30;99.90;;;;;;4915984;29;20668;-54
2024/01/26 04:54:48;;;;;;;19.42;3.78;;;11.20;99.90;;;;;;4915710;29;20369;-54
2024/01/26 04:57:14;;;;;;;20.55;4.50;;;11.30;99.90;;;;;;4915770;29;20047;-58
2024/01/26 04:59:40;;;;;;;19.60;3.25;;;11.20;99.90;;;;;;4915882;29;20439;-55
2024/01/26 05:02:05;;;;;;;12.63;2.50;;;11.20;99.90;;;;;;4915484;29;20555;-58
2024/01/26 05:04:31;;;;;;;18.48;3.58;;;11.20;99.90;;;;;;4915671;29;20044;-54
2024/01/26 05:06:57;;;;;;;15.32;2.85;;;11.20;99.90;;;;;;4915295;29;20032;-54
2024/01/26 05:09:22;;;;;;;21.85;3.25;;;11.20;99.90;;;;;;4915605;29;20127;-54
2024/01/26 05:11:48;;;;;;;16.75;2.85;;;11.10;99.90;;;;;;4915302;29;20024;-56
2024/01/26 05:14:14;;;;;;;21.55;5.25;;;11.10;99.90;;;;;;4915309;29;20099;-56
2024/01/26 05:16:39;;;;;;;17.70;3.25;;;11.10;99.90;;;;;;4915369;29;20452;-54
2024/01/26 05:19:05;;;;;;;21.77;3.42;;;11.10;99.90;;;;;;4915289;29;20458;-56
2024/01/26 05:21:31;;;;;;;22.42;3.55;;;11.10;99.90;;;;;;4915348;29;20404;-54
2024/01/26 05:23:56;;;;;;;27.35;4.03;;;11.10;99.90;;;;;;4915164;29;20036;-55
2024/01/26 05:26:22;;;;;;;26.13;3.85;;;11.10;99.90;;;;;;4914885;29;20051;-52
2024/01/26 05:28:47;;;;;;;14.27;3.28;;;11.10;99.90;;;;;;4915334;29;20039;-53
2024/01/26 05:31:13;;;;;;;24.20;3.85;;;11.10;99.90;;;;;;4914908;29;20383;-55
2024/01/26 05:33:39;;;;;;;21.38;3.65;;;11.10;99.90;;;;;;4915330;29;20102;-55
2024/01/26 05:36:04;;;;;;;24.77;3.92;;;11.10;99.90;;;;;;4914993;29;20044;-54
2024/01/26 05:38:30;;;;;;;19.20;3.22;;;11.10;99.90;;;;;;4915097;29;20028;-56
2024/01/26 05:40:56;;;;;;;17.88;3.15;;;11.10;99.90;;;;;;4915042;29;20024;-51
2024/01/26 05:43:22;;;;;;;22.77;3.67;;;11.10;99.90;;;;;;4914958;29;20494;-53
2024/01/26 05:45:47;;;;;;;16.40;3.65;;;11.10;99.90;;;;;;4915232;29;20024;-56
2024/01/26 05:48:13;;;;;;;16.52;2.65;;;11.10;99.90;;;;;;4915126;29;20020;-55
2024/01/26 05:50:39;;;;;;;15.85;1.90;;;11.10;99.90;;;;;;4914978;29;20357;-54
2024/01/26 05:53:04;;;;;;;11.05;1.70;;;10.90;99.90;;;;;;4914761;29;20027;-54
2024/01/26 05:55:30;;;;;;;4.28;0.98;;;10.70;99.90;;;;;;4914699;29;20058;-55
2024/01/26 05:57:56;;;;;;;1.52;0.80;;;10.50;99.90;;;;;;4914911;29;20078;-52
2024/01/26 06:00:22;;;;;;;5.82;1.17;;;10.40;99.90;;;;;;4914775;29;20027;-53
2024/01/26 06:02:47;;;;;;;2.45;0.65;;;10.30;99.90;;;;;;4914901;29;20036;-52
2024/01/26 06:05:13;;;;;;;4.00;0.65;;;10.20;99.90;;;;;;4914596;29;20476;-59
2024/01/26 06:07:39;;;;;;;0.55;0.40;;;10.10;99.90;;;;;;4914791;29;20024;-55
2024/01/26 06:10:06;;;;;;;1.55;0.50;;;10.00;99.90;;;;;;4914395;29;20119;-54
2024/01/26 06:12:31;;;;;;;2.17;0.40;;;9.90;99.90;;;;;;4914500;29;20456;-55
2024/01/26 06:14:57;;;;;;;0.65;0.40;;;9.90;99.90;;;;;;4914748;29;20115;-54
2024/01/26 06:17:23;;;;;;;1.30;0.40;;;9.90;99.90;;;;;;4914420;29;20024;-54
2024/01/26 06:19:48;;;;;;;0.65;0.30;;;9.80;99.90;;;;;;4914687;29;20020;-53
2024/01/26 06:22:14;;;;;;;2.50;0.57;;;9.80;99.90;;;;;;4914487;29;20028;-55
2024/01/26 06:24:40;;;;;;;4.15;0.50;;;9.80;99.90;;;;;;4914122;29;20052;-56
2024/01/26 06:27:05;;;;;;;2.10;0.70;;;9.80;99.90;;;;;;4914373;29;20095;-54
2024/01/26 06:29:31;;;;;;;2.70;0.45;;;9.70;99.90;;;;;;4913782;29;20051;-54
2024/01/26 06:32:00;;;;;;;2.45;0.80;;;9.70;99.90;;;;;;4914455;29;20098;-57
2024/01/26 06:34:26;;;;;;;2.80;0.60;;;9.70;99.90;;;;;;4914315;29;20381;-54
2024/01/26 06:36:51;;;;;;;4.20;1.00;;;9.70;99.90;;;;;;4914551;29;20155;-57
2024/01/26 06:39:17;;;;;;;8.15;1.00;;;9.70;99.90;;;;;;4914312;29;20035;-58
2024/01/26 06:41:43;;;;;;;5.82;1.23;;;9.60;99.90;;;;;;4914235;29;20399;-57
2024/01/26 06:44:09;;;;;;;2.40;0.82;;;9.70;99.90;;;;;;4914316;29;20043;-53
2024/01/26 06:46:35;;;;;;;3.85;0.60;;;9.60;99.90;;;;;;4914293;29;20040;-54
2024/01/26 06:49:03;;;;;;;6.65;1.45;;;9.60;99.90;;;;;;4914214;29;20028;-57
2024/01/26 06:51:29;;;;;;;5.38;0.85;;;9.60;99.90;;;;;;4914110;29;20020;-53
2024/01/26 06:53:56;;;;;;;5.10;0.65;;;9.60;99.90;;;;;;4914106;29;20031;-54
2024/01/26 06:56:22;;;;;;;7.47;1.20;;;9.50;99.90;;;;;;4913993;29;20376;-57
2024/01/26 06:58:47;;;;;;;4.95;1.58;;;9.50;99.90;;;;;;4914322;29;20035;-54
2024/01/26 07:01:14;;;;;;;5.40;1.25;;;9.50;99.90;;;;;;4914320;29;20050;-58
2024/01/26 07:03:40;;;;;;;4.30;0.80;;;9.40;99.90;;;;;;4913967;29;20039;-59
2024/01/26 07:06:05;;;;;;;2.88;1.13;;;9.40;99.90;;;;;;4912844;29;20025;-56
2024/01/26 07:08:31;;;;;;;6.82;1.40;;;9.20;99.90;;;;;;4913784;29;20021;-55
2024/01/26 07:10:57;;;;;;;4.15;0.90;;;9.20;99.90;;;;;;4913758;29;20692;-57
2024/01/26 07:13:23;;;;;;;5.78;1.65;;;9.10;99.90;;;;;;4914371;29;20126;-57
2024/01/26 07:15:48;;;;;;;5.78;1.25;;;9.00;99.90;;;;;;4913956;29;20071;-55
2024/01/26 07:18:14;;;;;;;9.95;1.13;;;8.90;99.90;;;;;;4913768;29;20036;-57
2024/01/26 07:20:39;;;;;;;4.93;1.17;;;8.80;99.90;;;;;;4916307;29;20436;-57
2024/01/26 07:23:05;;;;;;;5.35;1.20;;;8.70;99.90;;;;;;4917716;29;20075;-56
2024/01/26 07:25:31;;;;;;;2.80;0.60;;;8.70;99.90;;;;;;4915948;29;20067;-56
2024/01/26 07:27:57;;;;;;;3.13;0.93;;;8.50;99.90;;;;;;4917957;29;20019;-55
2024/01/26 07:30:22;;;;;;;5.50;0.85;;;8.50;99.90;;;;;;4915843;29;20040;-55
2024/01/26 07:32:48;;;;;;;7.38;1.00;;;8.40;99.90;;;;;;4917983;29;20031;-59
2024/01/26 07:35:13;;;;;;;2.40;0.73;;;8.40;99.90;;;;;;4904732;29;20024;-57
2024/01/26 07:37:40;;;;;;;6.80;1.00;;;8.30;99.90;;;;;;4915902;29;20032;-57
2024/01/26 07:40:06;;;;;;;5.30;1.52;;;8.20;99.90;;;;;;4917282;29;20056;-59
2024/01/26 07:42:32;;;;;;;3.55;0.95;;;8.20;99.90;;;;;;4918555;29;20111;-58
2024/01/26 07:44:58;;;;;;;7.78;1.02;;;8.10;99.90;;;;;;4920973;29;20193;-55
2024/01/26 07:47:24;;;;;;;5.10;0.70;;;8.10;99.90;;;;;;4921634;29;20017;-54
2024/01/26 07:49:49;;;;;;;2.40;0.80;;;8.00;99.90;;;;;;4924195;29;20115;-57
2024/01/26 07:52:16;;;;;;;2.42;0.90;;;7.90;99.90;;;;;;4922243;29;20024;-57
2024/01/26 07:54:41;;;;;;;2.55;0.80;;;7.80;99.90;;;;;;4921375;29;20042;-55
2024/01/26 07:57:07;;;;;;;3.25;0.95;;;7.80;99.90;;;;;;4922171;29;20427;-57
2024/01/26 07:59:33;;;;;;;8.88;0.98;;;7.70;99.90;;;;;;4919886;29;20029;-54
2024/01/26 08:01:58;;;;;;;3.22;1.25;;;7.70;99.90;;;;;;4923026;29;20024;-57
2024/01/26 08:04:24;;;;;;;4.72;0.77;;;7.70;99.90;;;;;;4919924;29;20103;-58
2024/01/26 08:06:50;;;;;;;0.80;0.50;;;7.60;99.90;;;;;;4921916;29;20032;-56
2024/01/26 08:09:15;;;;;;;3.85;0.90;;;7.60;99.90;;;;;;4920649;29;20468;-57
2024/01/26 08:11:41;;;;;;;4.82;0.85;;;7.60;99.90;;;;;;4919797;29;20483;-57
2024/01/26 08:14:06;;;;;;;4.63;0.80;;;7.60;99.90;;;;;;4916546;29;20442;-56
2024/01/26 08:16:32;;;;;;;4.40;0.80;;;7.50;99.90;;;;;;4916625;29;20025;-55
2024/01/26 08:18:58;;;;;;;2.55;0.60;;;7.50;99.90;;;;;;4925344;29;20524;-57
2024/01/26 08:21:25;;;;;;;6.70;0.98;;;7.50;99.90;;;;;;4916356;29;20123;-61
2024/01/26 08:23:51;;;;;;;7.38;0.82;;;7.50;99.90;;;;;;4906290;29;20032;-56
2024/01/26 08:26:18;;;;;;;4.13;1.08;;;7.50;99.90;;;;;;4922553;29;20135;-56
2024/01/26 08:28:44;;;;;;;1.80;0.60;;;7.60;99.90;;;;;;4907830;29;20029;-57
2024/01/26 08:31:10;;;;;;;5.10;0.80;;;7.60;99.90;;;;;;4919770;29;20059;-57
2024/01/26 08:33:36;;;;;;;2.70;0.63;;;7.60;99.90;;;;;;4923993;29;20091;-54
2024/01/26 08:36:01;;;;;;;3.53;0.98;;;7.60;99.90;;;;;;4921965;29;20020;-56
2024/01/26 08:38:27;;;;;;;1.20;0.55;;;7.60;99.90;;;;;;4926049;29;20027;-56
2024/01/26 08:40:53;;;;;;;2.83;0.57;;;8.00;99.90;;;;;;4921632;29;20028;-56
2024/01/26 08:43:19;;;;;;;6.22;0.80;;;8.90;99.90;;;;;;4925872;29;20042;-56
2024/01/26 08:45:45;;;;;;;3.17;0.73;;;9.60;99.90;;;;;;4919334;29;20024;-59
2024/01/26 08:48:11;;;;;;;4.32;0.63;;;10.10;99.90;;;;;;4928170;29;20086;-57
2024/01/26 08:50:36;;;;;;;5.10;0.50;;;10.40;99.90;;;;;;4929725;29;20403;-56
2024/01/26 08:53:03;;;;;;;2.72;0.65;;;11.10;99.90;;;;;;4922564;29;20083;-57
2024/01/26 08:55:28;;;;;;;2.08;0.77;;;11.90;99.90;;;;;;4928355;29;20024;-57
2024/01/26 08:57:54;;;;;;;3.03;0.75;;;12.40;99.90;;;;;;4915962;29;20099;-58
2024/01/26 09:00:20;;;;;;;1.35;0.50;;;12.70;99.90;;;;;;4926972;29;20106;-57
2024/01/26 09:02:47;;;;;;;3.97;0.82;;;13.30;99.90;;;;;;4907288;29;20021;-58
2024/01/26 09:05:13;;;;;;;3.65;1.00;;;13.70;99.90;;;;;;4924545;29;20040;-57
2024/01/26 09:07:38;;;;;;;1.23;0.40;;;14.60;99.90;;;;;;4933495;29;20046;-60
2024/01/26 09:10:07;;;;;;;1.88;0.43;;;15.40;99.90;;;;;;4932074;29;20039;-58
2024/01/26 09:12:33;;;;;;;1.88;0.45;;;16.10;99.90;;;;;;4917965;29;20016;-57
2024/01/26 09:14:59;;;;;;;2.85;0.60;;;16.70;97.90;;;;;;4915505;29;20040;-58
2024/01/26 09:17:25;;;;;;;1.40;0.40;;;16.60;98.50;;;;;;4916454;29;20061;-57
2024/01/26 09:19:50;;;;;;;0.88;0.47;;;16.70;97.50;;;;;;4932024;29;20067;-57
2024/01/26 09:22:16;;;;;;;2.03;0.50;;;16.50;96.00;;;;;;4932062;29;20032;-58
2024/01/26 09:24:42;;;;;;;2.03;0.50;;;15.90;97.10;;;;;;4932311;29;20062;-58
2024/01/26 09:27:07;;;;;;;1.50;0.50;;;14.70;98.20;;;;;;4932937;29;20119;-57
2024/01/26 09:29:33;;;;;;;4.65;0.90;;;13.70;99.90;;;;;;4931597;29;20031;-57
2024/01/26 09:31:59;;;;;;;1.73;0.60;;;12.70;99.90;;;;;;4933042;29;20031;-58
2024/01/26 09:34:26;;;;;;;1.30;0.43;;;11.80;99.90;;;;;;4931665;29;20047;-57
2024/01/26 09:36:51;;;;;;;2.80;0.60;;;11.10;99.90;;;;;;4933051;29;20054;-57
2024/01/26 09:39:17;;;;;;;2.88;0.60;;;10.40;99.90;;;;;;4932129;29;20063;-56
2024/01/26 09:41:43;;;;;;;1.95;0.68;;;9.90;99.90;;;;;;4932483;29;20028;-57
2024/01/26 09:44:10;;;;;;;3.08;0.80;;;9.60;99.90;;;;;;4933037;29;20035;-57
2024/01/26 09:46:36;;;;;;;4.20;0.93;;;9.60;99.90;;;;;;4931493;29;20024;-57
2024/01/26 09:49:03;;;;;;;1.95;0.95;;;9.80;99.90;;;;;;4932781;29;20451;-57
2024/01/26 09:51:30;;;;;;;1.98;0.52;;;11.10;99.90;;;;;;4931427;29;20484;-58
2024/01/26 09:53:59;;;;;;;1.30;0.40;;;13.00;99.90;;;;;;4932856;29;20027;-57
2024/01/26 09:56:26;;;;;;;;;;;14.90;97.70;;;;;;4931950;29;20044;-57
2024/01/26 09:58:53;;;;;;;2.40;0.43;;;15.30;95.80;;;;;;4932780;29;19906;-57
2024/01/26 10:01:22;;;;;;;4.30;0.50;;;15.80;95.50;;;;;;4923083;29;20044;-55
2024/01/26 10:03:52;;;;;;;2.72;0.73;;;15.90;95.00;;;;;;4920474;29;20176;-59
2024/01/26 10:06:19;;;;;;;4.72;0.60;;;16.80;92.50;;;;;;4913705;29;20087;-51
2024/01/26 10:08:44;;;;;;;3.75;0.70;;;16.70;92.50;;;;;;4909721;29;20448;-49
2024/01/26 10:11:10;;;;;;;1.85;0.50;;;17.20;93.10;;;;;;4915848;29;20090;-50
2024/01/26 10:13:36;;;;;;;6.03;0.55;;;18.40;92.40;;;;;;4914633;29;20099;-55
2024/01/26 10:16:11;;;;;;;1.55;0.43;;;18.90;88.70;;;;;;4925439;29;20384;-57
2024/01/26 10:18:45;;;;;;;2.55;0.77;;;18.90;83.70;;;;;;4920457;29;20021;-52
2024/01/26 10:21:11;;;;;;;2.67;0.52;;;18.50;84.10;;;;;;4924485;29;20039;-54
2024/01/26 10:23:37;;;;;;;3.80;0.70;;;20.10;83.90;;;;;;4924076;29;20047;-51
2024/01/26 10:26:03;;;;;;;5.18;0.90;;;19.90;79.90;;;;;;4923670;29;20044;-53
2024/01/26 10:28:28;;;;;;;2.40;0.60;;;20.40;77.30;;;;;;4925919;29;20032;-54
2024/01/26 10:30:54;;;;;;;4.25;0.70;;;20.70;79.20;;;;;;4921855;29;20376;-57
2024/01/26 10:33:22;;;;;;;4.10;1.25;;;20.70;77.60;;;;;;4927039;29;20031;-51
2024/01/26 10:35:50;;;;;;;2.83;0.60;;;20.90;73.90;;;;;;4921876;29;20028;-54
2024/01/26 10:38:16;;;;;;;2.97;0.52;;;20.50;74.20;;;;;;4926376;29;20055;-50
2024/01/26 10:40:45;;;;;;;4.68;0.70;;;20.30;72.60;;;;;;4922075;29;20024;-51
2024/01/26 10:43:12;;;;;;;3.70;0.52;;;20.70;75.20;;;;;;4924578;29;20028;-54
2024/01/26 10:45:38;;;;;;;6.10;0.60;;;21.60;70.10;;;;;;4924049;29;20038;-57
2024/01/26 10:48:05;;;;;;;4.38;0.80;;;21.40;71.40;;;;;;4920034;29;20024;-59
2024/01/26 10:50:32;;;;;;;2.35;0.57;;;21.50;69.80;;;;;;4925874;29;20032;-58
2024/01/26 10:52:58;;;;;;;2.65;0.60;;;22.70;69.90;;;;;;4919924;29;20028;-58
2024/01/26 10:55:26;;;;;;;4.43;1.13;;;22.00;66.30;;;;;;4923626;29;20491;-58
2024/01/26 10:57:51;;;;;;;3.63;0.75;;;21.80;65.00;;;;;;4919037;29;20063;-59
2024/01/26 11:00:18;;;;;;;4.25;0.70;;;23.30;66.60;;;;;;4922906;29;20087;-59
2024/01/26 11:02:44;;;;;;;4.22;0.60;;;23.40;64.10;;;;;;4924149;29;20072;-51
2024/01/26 11:05:11;;;;;;;5.28;0.93;;;23.60;64.60;;;;;;4922254;29;20040;-55
2024/01/26 11:07:39;;;;;;;2.95;0.70;;;23.40;60.80;;;;;;4927249;29;20103;-59
2024/01/26 11:10:10;;;;;;;2.92;0.77;;;23.20;60.50;;;;;;4932602;29;20028;-56
2024/01/26 11:12:37;;;;;;;3.70;0.82;;;22.30;62.20;;;;;;4915823;29;20496;-58
2024/01/26 11:15:08;;;;;;;4.35;0.90;;;23.10;60.60;;;;;;4914547;29;20036;-60
2024/01/26 11:17:46;;;;;;;3.88;0.77;;;24.00;61.50;;;;;;4917322;29;20044;-58
2024/01/26 11:20:14;;;;;;;4.13;0.80;;;24.90;58.20;;;;;;4917221;29;20047;-58
2024/01/26 11:22:40;;;;;;;3.30;0.88;;;25.00;59.60;;;;;;4935259;29;20023;-56
2024/01/26 11:25:06;;;;;;;3.35;0.65;;;25.80;57.20;;;;;;4936172;29;20124;-59
2024/01/26 11:27:32;;;;;;;7.47;1.90;;;25.60;54.90;;;;;;4936329;29;20035;-48
2024/01/26 11:29:58;;;;;;;3.60;0.90;;;24.50;56.30;;;;;;4936340;29;20024;-53
2024/01/26 11:32:24;;;;;;;3.33;0.68;;;23.80;56.90;;;;;;4936119;29;20053;-56
2024/01/26 11:35:00;;;;;;;5.05;0.90;;;23.80;57.40;;;;;;4935460;29;20024;-60
2024/01/26 11:37:28;;;;;;;4.35;1.00;;;23.80;57.10;;;;;;4935405;29;20044;-59
2024/01/26 11:39:55;;;;;;;2.00;0.80;;;23.70;54.80;;;;;;4935509;29;20159;-58
2024/01/26 11:42:23;;;;;;;4.03;0.98;;;24.00;56.90;;;;;;4929292;29;20503;-55
2024/01/26 11:45:09;;;;;;;3.95;0.80;;;24.50;55.40;;;;;;4930580;29;20058;-57
2024/01/26 11:47:38;;;;;;;3.35;0.93;;;24.60;53.90;;;;;;4923189;29;20036;-53
2024/01/26 11:50:11;;;;;;;4.60;0.80;;;25.10;53.90;;;;;;4905194;29;20360;-56
2024/01/26 11:52:37;;;;;;;2.15;0.60;;;25.00;51.30;;;;;;4917263;29;20423;-58
2024/01/26 11:55:04;;;;;;;4.75;1.15;;;25.60;52.20;;;;;;4916164;29;20206;-53
2024/01/26 11:57:30;;;;;;;5.80;1.27;;;25.40;52.20;;;;;;4900079;29;20040;-58
2024/01/26 11:59:58;;;;;;;3.65;0.80;;;24.30;51.60;;;;;;4905205;29;20083;-52
2024/01/26 12:02:24;;;;;;;2.33;0.68;;;23.30;53.40;;;;;;4911700;29;20021;-56
2024/01/26 12:04:49;;;;;;;3.10;0.95;;;22.50;54.80;;;;;;4921029;29;20064;-53
2024/01/26 12:07:15;;;;;;;3.70;0.90;;;22.70;53.20;;;;;;4922816;29;20024;-54
2024/01/26 12:09:41;;;;;;;1.85;0.60;;;21.50;53.60;;;;;;4920336;29;20040;-52
2024/01/26 12:12:08;;;;;;;3.78;0.88;;;21.70;53.70;;;;;;4916504;29;20452;-56
2024/01/26 12:14:34;;;;;;;4.03;0.82;;;20.90;55.60;;;;;;4903320;29;20395;-52
2024/01/26 12:17:04;;;;;;;2.80;0.80;;;20.80;54.80;;;;;;4916006;29;20193;-47
2024/01/26 12:19:29;;;;;;;4.22;0.80;;;22.20;56.10;;;;;;4920119;29;20415;-52
2024/01/26 12:21:57;;;;;;;6.03;0.93;;;23.30;53.00;;;;;;4931181;29;20023;-48
2024/01/26 12:24:23;;;;;;;5.20;1.15;;;23.40;54.10;;;;;;4930248;29;20070;-49
2024/01/26 12:26:50;;;;;;;3.88;1.45;;;23.40;51.40;;;;;;4931472;29;20400;-53
2024/01/26 12:29:16;;;;;;;6.80;1.30;;;23.20;52.80;;;;;;4929546;29;20032;-57
2024/01/26 12:31:42;;;;;;;2.70;0.90;;;23.80;53.10;;;;;;4932550;29;20356;-48
2024/01/26 12:34:14;;;;;;;6.43;0.80;;;24.40;54.20;;;;;;4930568;29;20028;-55
2024/01/26 12:36:40;;;;;;;5.40;0.80;;;24.80;52.10;;;;;;4921689;29;20083;-49
2024/01/26 12:39:06;;;;;;;5.28;1.33;;;25.10;52.00;;;;;;4931378;29;20024;-51
2024/01/26 12:41:36;;;;;;;4.63;1.02;;;24.50;51.30;;;;;;4930520;29;20035;-56
2024/01/26 12:44:01;;;;;;;3.80;0.90;;;24.00;52.40;;;;;;4932023;29;20048;-53